Time;durP1;ratioP1;P1;durP2;ratioP2;P2;SDS_P1;SDS_P2;PMS_P1;PMS_P2;Temp;Humidity;BMP_temperature;BMP_pressure;BME280_temperature;BME280_humidity;BME280_pressure;Samples;Min_cycle;Max_cycle;Signal;HPM_P1;HPM_P2
2022/05/16 01:32:37;;;;;;;6.60;6.10;;;;;;;;;;6071918;22;20481;-93
2022/05/16 01:35:11;;;;;;;7.40;6.77;;;;;;;;;;6354710;22;20418;-93
2022/05/16 01:40:23;;;;;;;7.37;6.77;;;;;;;;;;6354493;22;20445;-93
2022/05/16 01:42:54;;;;;;;7.60;6.63;;;;;;;;;;6325461;22;20851;-94
2022/05/16 01:45:20;;;;;;;6.50;6.00;;;;;;;;;;6322649;22;20496;-93
2022/05/16 01:50:50;;;;;;;7.30;6.57;;;;;;;;;;6235924;22;20455;-92
2022/05/16 01:56:34;;;;;;;6.20;5.70;;;;;;;;;;6171071;22;20515;-91
2022/05/16 01:59:01;;;;;;;6.70;6.30;;;;;;;;;;6296585;22;20437;-92
2022/05/16 02:01:41;;;;;;;6.53;6.00;;;;;;;;;;6299094;22;20426;-92
2022/05/16 02:04:27;;;;;;;6.30;5.90;;;;;;;;;;6316681;22;20375;-92
2022/05/16 02:06:56;;;;;;;6.50;6.10;;;;;;;;;;6329658;22;20422;-91
2022/05/16 02:09:25;;;;;;;6.27;5.97;;;;;;;;;;6291776;22;20384;-92
2022/05/16 02:11:51;;;;;;;6.43;5.93;;;;;;;;;;6289521;22;20403;-92
2022/05/16 02:14:17;;;;;;;6.57;6.07;;;;;;;;;;6298863;22;20409;-91
2022/05/16 02:16:43;;;;;;;6.63;6.10;;;;;;;;;;6295566;22;20387;-92
2022/05/16 02:19:11;;;;;;;6.80;6.50;;;;;;;;;;6283557;22;20395;-92
2022/05/16 02:24:42;;;;;;;7.40;6.80;;;;;;;;;;6317215;22;20394;-93
2022/05/16 02:27:15;;;;;;;7.13;6.63;;;;;;;;;;6319194;22;20420;-92
2022/05/16 02:29:50;;;;;;;6.30;5.80;;;;;;;;;;6290353;22;20398;-92
2022/05/16 02:32:16;;;;;;;11.73;5.87;;;;;;;;;;6287298;22;21021;-92
2022/05/16 02:34:44;;;;;;;6.63;6.03;;;;;;;;;;6288811;22;20801;-92
2022/05/16 02:37:13;;;;;;;8.50;6.57;;;;;;;;;;6294319;22;20445;-92
2022/05/16 02:39:45;;;;;;;5.50;5.17;;;;;;;;;;6296951;22;20403;-92
2022/05/16 02:42:11;;;;;;;5.97;5.57;;;;;;;;;;6301877;22;20422;-93
2022/05/16 02:44:38;;;;;;;10.13;6.63;;;;;;;;;;6290094;22;20395;-92
2022/05/16 02:47:06;;;;;;;8.00;5.70;;;;;;;;;;6319174;22;20644;-91
2022/05/16 02:49:35;;;;;;;6.23;5.53;;;;;;;;;;6292006;22;20882;-93
2022/05/16 02:52:01;;;;;;;6.23;5.70;;;;;;;;;;6291188;22;20397;-92
2022/05/16 02:54:33;;;;;;;6.77;6.17;;;;;;;;;;6294703;22;20402;-92
2022/05/16 02:59:56;;;;;;;6.50;5.87;;;;;;;;;;6318960;22;20367;-92
2022/05/16 03:02:25;;;;;;;8.07;5.73;;;;;;;;;;6292575;22;20704;-92
2022/05/16 03:04:54;;;;;;;6.30;6.00;;;;;;;;;;6290504;22;20700;-93
2022/05/16 03:07:22;;;;;;;6.10;5.70;;;;;;;;;;6293055;22;20414;-92
2022/05/16 03:09:51;;;;;;;6.53;5.87;;;;;;;;;;6294079;22;20932;-92
2022/05/16 03:12:20;;;;;;;6.10;5.80;;;;;;;;;;6295846;22;20392;-92
2022/05/16 03:15:02;;;;;;;8.83;6.70;;;;;;;;;;6296791;22;20391;-93
2022/05/16 03:17:38;;;;;;;6.43;5.87;;;;;;;;;;6301050;22;20400;-92
2022/05/16 03:20:08;;;;;;;6.60;6.10;;;;;;;;;;6301104;22;20435;-93
2022/05/16 03:22:37;;;;;;;6.60;6.30;;;;;;;;;;6326201;22;20400;-92
2022/05/16 03:25:14;;;;;;;6.80;6.20;;;;;;;;;;6288394;22;20394;-93
2022/05/16 03:27:44;;;;;;;8.43;6.83;;;;;;;;;;6296857;22;20375;-92
2022/05/16 03:30:11;;;;;;;7.17;6.67;;;;;;;;;;6303846;22;20375;-93
2022/05/16 03:32:40;;;;;;;6.87;6.30;;;;;;;;;;6305306;22;20384;-92
2022/05/16 03:35:10;;;;;;;7.17;6.60;;;;;;;;;;6178762;22;20527;-91
2022/05/16 03:37:58;;;;;;;7.00;6.60;;;;;;;;;;6170941;23;20478;-92
2022/05/16 03:40:42;;;;;;;6.73;6.03;;;;;;;;;;6172522;23;20404;-91
2022/05/16 03:43:19;;;;;;;6.40;6.10;;;;;;;;;;6173880;23;20423;-92
2022/05/16 03:45:45;;;;;;;7.33;6.63;;;;;;;;;;6172198;23;20458;-94
2022/05/16 03:48:15;;;;;;;6.83;6.47;;;;;;;;;;6172687;23;20392;-92
2022/05/16 03:50:44;;;;;;;7.87;7.37;;;;;;;;;;6173733;23;20376;-91
2022/05/16 03:53:23;;;;;;;6.87;6.50;;;;;;;;;;6171447;23;20403;-92
2022/05/16 03:56:07;;;;;;;7.07;6.77;;;;;;;;;;6148421;23;20365;-92
2022/05/16 03:58:33;;;;;;;7.40;6.70;;;;;;;;;;6172835;23;20360;-92
2022/05/16 04:01:00;;;;;;;10.00;7.60;;;;;;;;;;6171050;23;20400;-91
2022/05/16 04:03:31;;;;;;;7.00;6.60;;;;;;;;;;6170053;23;20562;-92
2022/05/16 04:05:57;;;;;;;6.73;6.40;;;;;;;;;;6170808;23;20412;-92
2022/05/16 04:08:31;;;;;;;8.00;7.40;;;;;;;;;;6170940;23;20436;-91
2022/05/16 04:10:58;;;;;;;7.30;6.70;;;;;;;;;;6172223;23;20854;-93
2022/05/16 04:13:32;;;;;;;7.87;7.37;;;;;;;;;;6173630;23;20456;-92
2022/05/16 04:16:18;;;;;;;5.93;5.53;;;;;;;;;;6173156;23;20495;-93
2022/05/16 04:19:27;;;;;;;6.00;5.60;;;;;;;;;;6172712;23;20407;-93
2022/05/16 04:22:40;;;;;;;6.57;6.07;;;;;;;;;;6176131;23;20399;-93
2022/05/16 04:25:50;;;;;;;8.70;6.37;;;;;;;;;;6285909;22;20930;-91
2022/05/16 04:28:59;;;;;;;7.50;6.90;;;;;;;;;;6172252;23;20404;-92
2022/05/16 04:32:02;;;;;;;7.17;6.77;;;;;;;;;;6174484;23;20425;-92
2022/05/16 04:35:15;;;;;;;8.27;6.60;;;;;;;;;;6174734;23;20377;-92
2022/05/16 04:38:24;;;;;;;6.77;6.27;;;;;;;;;;6144796;23;20385;-91
2022/05/16 04:46:51;;;;;;;7.03;6.60;;;;;;;;;;6183913;22;20446;-91
2022/05/16 04:51:53;;;;;;;6.93;6.43;;;;;;;;;;6174311;22;20698;-88
2022/05/16 04:54:23;;;;;;;6.77;6.20;;;;;;;;;;6086576;23;20382;-92
2022/05/16 04:56:57;;;;;;;8.73;6.80;;;;;;;;;;6086369;23;20416;-90
2022/05/16 04:59:47;;;;;;;6.97;6.47;;;;;;;;;;6111889;23;20450;-91
2022/05/16 05:02:53;;;;;;;6.17;5.77;;;;;;;;;;6233934;22;20471;-91
2022/05/16 05:21:31;;;;;;;5.07;4.60;;;;;;;;;;6201088;23;20367;-91
2022/05/16 05:24:44;;;;;;;5.70;5.40;;;;;;;;;;6166755;22;20457;-92
2022/05/16 05:30:55;;;;;;;5.03;4.70;;;;;;;;;;6173131;22;20542;-91
2022/05/16 05:39:01;;;;;;;7.20;5.17;;;;;;;;;;6279179;22;22199;-90
2022/05/16 05:47:35;;;;;;;5.70;5.23;;;;;;;;;;6237794;22;20452;-92
2022/05/16 05:53:06;;;;;;;9.73;5.27;;;;;;;;;;6122135;23;20465;-92
2022/05/16 05:58:54;;;;;;;5.97;5.30;;;;;;;;;;6156320;22;20462;-93
2022/05/16 06:04:48;;;;;;;5.23;4.70;;;;;;;;;;6321909;22;20462;-94
2022/05/16 06:13:40;;;;;;;5.53;4.90;;;;;;;;;;6307362;22;20474;-94
2022/05/16 06:16:54;;;;;;;9.03;5.47;;;;;;;;;;6316554;22;20427;-93
2022/05/16 06:22:54;;;;;;;5.57;5.20;;;;;;;;;;6285560;22;20476;-92
2022/05/16 06:26:05;;;;;;;5.70;5.33;;;;;;;;;;6271858;22;20491;-93
2022/05/16 06:29:14;;;;;;;7.03;6.47;;;;;;;;;;6324148;22;20433;-93
2022/05/16 06:32:22;;;;;;;7.30;5.60;;;;;;;;;;6325927;22;20380;-93
2022/05/16 06:38:22;;;;;;;6.33;5.60;;;;;;;;;;6162396;23;20579;-93
2022/05/16 06:41:26;;;;;;;10.70;5.60;;;;;;;;;;6172576;23;20416;-90
2022/05/16 06:44:32;;;;;;;5.37;4.93;;;;;;;;;;6170162;22;20435;-87
2022/05/16 06:47:40;;;;;;;7.43;4.73;;;;;;;;;;6183066;22;20423;-91
2022/05/16 07:02:20;;;;;;;5.37;4.97;;;;;;;;;;6140787;23;20460;-92
2022/05/16 07:08:20;;;;;;;4.40;4.00;;;;;;;;;;6099643;22;20463;31
2022/05/16 07:11:25;;;;;;;3.90;3.70;;;;;;;;;;6204733;23;20399;-91
2022/05/16 07:17:15;;;;;;;5.50;4.33;;;;;;;;;;6169268;22;20507;-90
2022/05/16 07:20:26;;;;;;;4.30;4.00;;;;;;;;;;6144876;22;22347;-90
2022/05/16 07:29:17;;;;;;;4.80;3.17;;;;;;;;;;6271944;22;20472;-91
2022/05/16 07:38:00;;;;;;;5.37;4.10;;;;;;;;;;6141754;23;20425;-90
2022/05/16 07:41:08;;;;;;;5.40;4.40;;;;;;;;;;6140228;23;20487;-91
2022/05/16 07:52:54;;;;;;;;;;;;;;;;;;;;;
2022/05/16 07:58:34;;;;;;;4.97;4.57;;;;;;;;;;6148769;22;20507;-91
2022/05/16 08:04:21;;;;;;;4.07;3.80;;;;;;;;;;6171541;23;20463;-94
2022/05/16 08:24:01;;;;;;;5.63;5.07;;;;;;;;;;6355718;22;20614;-91
2022/05/16 08:26:38;;;;;;;;;;;;;;;;;;;;;
2022/05/16 08:29:05;;;;;;;4.17;4.07;;;;;;;;;;6334733;22;20435;-90
2022/05/16 08:48:15;;;;;;;4.80;4.40;;;;;;;;;;6166744;22;20469;-91
2022/05/16 08:54:13;;;;;;;5.23;4.83;;;;;;;;;;6211568;23;20367;-91
2022/05/16 08:56:42;;;;;;;5.57;5.07;;;;;;;;;;6201174;23;20352;-85
2022/05/16 08:59:25;;;;;;;;;;;;;;;;;;;;;
2022/05/16 09:24:39;;;;;;;4.87;4.67;;;;;;;;;;6208629;22;21709;-92
2022/05/16 09:43:38;;;;;;;4.97;4.70;;;;;;;;;;6142324;22;20460;-90
2022/05/16 10:00:44;;;;;;;4.27;4.13;;;;;;;;;;6300079;22;20446;31
2022/05/16 10:17:21;;;;;;;3.47;3.37;;;;;;;;;;6196623;22;20496;-90
2022/05/16 10:25:38;;;;;;;3.60;3.50;;;;;;;;;;6186783;22;20444;-91
2022/05/16 10:33:52;;;;;;;3.60;3.30;;;;;;;;;;6076922;23;20449;-87
2022/05/16 10:51:48;;;;;;;8.50;3.60;;;;;;;;;;6270336;22;20457;-91
2022/05/16 11:05:18;;;;;;;3.50;3.40;;;;;;;;;;6150189;22;20511;-88
2022/05/16 11:08:24;;;;;;;5.10;3.90;;;;;;;;;;6185524;22;20962;-91
2022/05/16 11:11:41;;;;;;;3.73;3.23;;;;;;;;;;6194879;23;20395;-91
2022/05/16 11:14:54;;;;;;;2.37;2.37;;;;;;;;;;6181408;23;20391;-88
2022/05/16 11:25:50;;;;;;;2.40;2.40;;;;;;;;;;6146989;22;20442;-92
2022/05/16 11:29:17;;;;;;;3.17;3.17;;;;;;;;;;6202042;22;20419;-91
2022/05/16 11:32:27;;;;;;;3.13;3.03;;;;;;;;;;6196941;23;20399;-90
2022/05/16 11:35:21;;;;;;;2.77;2.50;;;;;;;;;;6181543;22;20443;-87
2022/05/16 11:43:44;;;;;;;3.57;3.27;;;;;;;;;;6175804;22;20438;-92
2022/05/16 11:46:49;;;;;;;2.80;2.70;;;;;;;;;;6322075;22;20427;-94
2022/05/16 11:52:37;;;;;;;2.87;2.67;;;;;;;;;;6300361;22;20447;-92
2022/05/16 12:29:06;;;;;;;4.63;4.40;;;;;;;;;;6107130;22;20445;-93
2022/05/16 12:32:16;;;;;;;4.10;4.00;;;;;;;;;;6110955;22;20406;-92
2022/05/16 12:35:27;;;;;;;4.50;4.23;;;;;;;;;;6113826;22;20422;-90
2022/05/16 12:38:32;;;;;;;3.33;3.07;;;;;;;;;;6112065;22;20370;-90
2022/05/16 12:44:36;;;;;;;6.50;3.77;;;;;;;;;;6096527;22;20546;-90
2022/05/16 12:47:54;;;;;;;5.10;4.37;;;;;;;;;;6160748;22;20461;-93
2022/05/16 12:51:02;;;;;;;4.10;3.77;;;;;;;;;;6142882;23;20394;-93
2022/05/16 12:54:14;;;;;;;64.63;60.07;;;;;;;;;;6147039;23;20421;-90
2022/05/16 12:59:55;;;;;;;4.43;4.23;;;;;;;;;;6167095;22;20439;-92
2022/05/16 13:02:39;;;;;;;5.80;5.50;;;;;;;;;;6172837;23;20460;-94
2022/05/16 13:05:57;;;;;;;5.40;5.10;;;;;;;;;;6134422;22;20460;-90
2022/05/16 13:09:06;;;;;;;4.97;4.53;;;;;;;;;;6138832;23;20455;-91
2022/05/16 13:14:27;;;;;;;4.90;4.60;;;;;;;;;;6126159;22;20444;-89
2022/05/16 13:17:44;;;;;;;;;;;;;;;;;;;;;
2022/05/16 13:20:41;;;;;;;5.50;5.10;;;;;;;;;;6134369;22;20463;-93
2022/05/16 13:23:52;;;;;;;5.73;5.27;;;;;;;;;;6109257;23;20397;-87
2022/05/16 13:33:16;;;;;;;7.33;5.57;;;;;;;;;;6136362;22;20461;-90
2022/05/16 13:36:25;;;;;;;25.03;11.50;;;;;;;;;;6141690;22;20413;-91
2022/05/16 13:42:26;;;;;;;22.43;13.20;;;;;;;;;;6109948;22;20438;-90
2022/05/16 13:45:24;;;;;;;18.30;11.67;;;;;;;;;;6111614;23;20404;-89
2022/05/16 13:48:29;;;;;;;15.47;10.17;;;;;;;;;;6141590;23;20972;-90
2022/05/16 13:51:15;;;;;;;19.17;12.80;;;;;;;;;;6194040;23;20406;-89
2022/05/16 13:53:41;;;;;;;14.80;10.90;;;;;;;;;;6168180;22;20463;-90
2022/05/16 13:56:07;;;;;;;14.87;11.90;;;;;;;;;;6164811;22;20410;-91
2022/05/16 13:58:33;;;;;;;24.97;16.20;;;;;;;;;;6159705;22;20392;-89
2022/05/16 14:01:23;;;;;;;18.10;13.90;;;;;;;;;;6184652;22;20375;-91
2022/05/16 14:03:55;;;;;;;25.00;15.53;;;;;;;;;;6193722;22;20404;-88
2022/05/16 14:06:38;;;;;;;12.97;11.17;;;;;;;;;;6199090;23;20485;-90
2022/05/16 14:09:14;;;;;;;18.93;14.27;;;;;;;;;;6172411;23;20396;-90
2022/05/16 14:11:42;;;;;;;18.50;12.20;;;;;;;;;;6195255;23;20364;-90
2022/05/16 14:14:10;;;;;;;18.57;13.97;;;;;;;;;;6195020;22;20871;-89
2022/05/16 14:16:53;;;;;;;;;;;;;;;;;;;;;
2022/05/16 14:19:59;;;;;;;16.93;15.10;;;;;;;;;;6197086;23;20862;-90
2022/05/16 14:22:25;;;;;;;17.73;14.73;;;;;;;;;;6190369;23;20376;-88
2022/05/16 14:24:52;;;;;;;21.77;16.83;;;;;;;;;;6163319;22;20410;-90
2022/05/16 14:27:46;;;;;;;19.27;15.47;;;;;;;;;;6196989;22;20434;-91
2022/05/16 14:30:16;;;;;;;16.03;13.97;;;;;;;;;;6188030;23;20437;-88
2022/05/16 14:32:44;;;;;;;24.90;16.53;;;;;;;;;;6166974;22;20394;-89
2022/05/16 14:35:12;;;;;;;18.10;14.47;;;;;;;;;;6171898;22;20433;-87
2022/05/16 14:37:43;;;;;;;19.07;16.90;;;;;;;;;;6083269;23;20408;-89
2022/05/16 14:40:14;;;;;;;16.00;14.40;;;;;;;;;;6082937;23;20378;-89
2022/05/16 14:42:40;;;;;;;32.50;18.90;;;;;;;;;;6080788;23;20394;-90
2022/05/16 14:45:12;;;;;;;28.67;22.90;;;;;;;;;;6098009;23;20393;-90
2022/05/16 14:47:40;;;;;;;24.67;18.87;;;;;;;;;;6075244;23;20478;-90
2022/05/16 14:50:10;;;;;;;15.37;13.60;;;;;;;;;;6105534;22;20386;-90
2022/05/16 14:52:37;;;;;;;18.20;16.40;;;;;;;;;;6114711;23;20393;-88
2022/05/16 14:55:11;;;;;;;19.67;17.47;;;;;;;;;;6108077;23;20726;-86
2022/05/16 14:57:43;;;;;;;22.00;16.73;;;;;;;;;;6075785;23;20409;-89
2022/05/16 15:04:02;;;;;;;18.87;15.80;;;;;;;;;;6093770;23;20358;-85
2022/05/16 15:05:42;;;;;;;19.00;17.03;;;;;;;;;;6086644;23;20460;-87
2022/05/16 15:08:08;;;;;;;19.17;15.90;;;;;;;;;;6094214;23;20428;-89
2022/05/16 15:10:36;;;;;;;15.40;13.90;;;;;;;;;;6069742;23;20394;-91
2022/05/16 15:13:03;;;;;;;16.93;15.33;;;;;;;;;;6069391;23;20729;-91
2022/05/16 15:15:34;;;;;;;15.73;14.10;;;;;;;;;;6071814;23;20378;-90
2022/05/16 15:18:06;;;;;;;16.63;15.10;;;;;;;;;;6099421;23;20381;-91
2022/05/16 15:20:42;;;;;;;20.10;15.10;;;;;;;;;;6075610;23;20401;-90
2022/05/16 15:23:09;;;;;;;15.57;14.17;;;;;;;;;;6100570;23;20378;-89
2022/05/16 15:25:36;;;;;;;12.27;11.20;;;;;;;;;;6075396;23;20437;-91
2022/05/16 15:28:03;;;;;;;11.60;10.80;;;;;;;;;;6097805;23;20452;-90
2022/05/16 15:30:34;;;;;;;15.17;13.77;;;;;;;;;;6102958;23;20434;-89
2022/05/16 15:33:00;;;;;;;14.70;13.30;;;;;;;;;;6095895;23;20383;-90
2022/05/16 15:35:26;;;;;;;12.90;11.97;;;;;;;;;;6068518;23;20382;-90
2022/05/16 15:37:55;;;;;;;15.00;13.30;;;;;;;;;;6072731;23;20428;-90
2022/05/16 15:40:22;;;;;;;13.67;12.50;;;;;;;;;;6073524;23;20436;-89
2022/05/16 15:42:48;;;;;;;14.60;13.27;;;;;;;;;;6069186;23;20468;-91
2022/05/16 15:45:15;;;;;;;12.27;11.23;;;;;;;;;;6069048;23;20378;-90
2022/05/16 15:47:48;;;;;;;12.23;11.40;;;;;;;;;;6067697;23;20398;-92
2022/05/16 15:50:19;;;;;;;12.93;11.83;;;;;;;;;;6064993;23;20410;-90
2022/05/16 15:52:45;;;;;;;13.80;12.67;;;;;;;;;;6087902;23;20397;-92
2022/05/16 15:55:14;;;;;;;12.67;11.57;;;;;;;;;;6092671;23;20394;-91
2022/05/16 15:57:41;;;;;;;13.97;12.63;;;;;;;;;;6063111;23;20394;-90
2022/05/16 16:00:09;;;;;;;13.40;12.17;;;;;;;;;;6063033;23;20413;-92
2022/05/16 16:02:37;;;;;;;15.43;14.00;;;;;;;;;;6088151;23;20378;-91
2022/05/16 16:08:37;;;;;;;15.13;14.13;;;;;;;;;;6093677;23;20680;-90
2022/05/16 16:10:50;;;;;;;14.17;13.03;;;;;;;;;;6098526;23;20404;-93
2022/05/16 16:13:21;;;;;;;15.33;14.23;;;;;;;;;;6077297;23;20725;-90
2022/05/16 16:15:47;;;;;;;17.27;15.67;;;;;;;;;;6072994;23;20394;-91
2022/05/16 16:18:14;;;;;;;16.63;15.37;;;;;;;;;;6077339;23;20490;-91
2022/05/16 16:20:42;;;;;;;17.50;16.10;;;;;;;;;;6078162;23;20398;-92
2022/05/16 16:23:08;;;;;;;15.83;14.60;;;;;;;;;;6108506;23;20390;-89
2022/05/16 16:25:34;;;;;;;17.27;15.77;;;;;;;;;;6081794;23;20403;-92
2022/05/16 16:28:06;;;;;;;16.30;14.80;;;;;;;;;;6077701;23;20409;-91
2022/05/16 16:30:36;;;;;;;17.67;16.07;;;;;;;;;;6072419;23;20391;-92
2022/05/16 16:33:04;;;;;;;17.60;15.77;;;;;;;;;;6066137;23;20402;-91
2022/05/16 16:42:04;;;;;;;17.10;15.60;;;;;;;;;;6245035;22;20391;-89
2022/05/16 16:44:33;;;;;;;15.77;14.43;;;;;;;;;;6260263;22;20399;-90
2022/05/16 16:46:59;;;;;;;14.43;13.33;;;;;;;;;;6256872;22;20928;-89
2022/05/16 16:58:54;;;;;;;14.63;13.53;;;;;;;;;;6295510;22;20352;-89
2022/05/16 17:01:23;;;;;;;15.30;14.10;;;;;;;;;;6242001;22;20405;-88
2022/05/16 17:03:49;;;;;;;16.70;15.13;;;;;;;;;;6258437;22;20415;-89
2022/05/16 17:06:25;;;;;;;16.00;14.50;;;;;;;;;;6262162;22;20721;-90
2022/05/16 17:11:41;;;;;;;15.77;14.57;;;;;;;;;;6323599;22;20359;-91
2022/05/16 17:14:07;;;;;;;14.43;13.50;;;;;;;;;;6319269;22;20372;-90
2022/05/16 17:21:39;;;;;;;16.00;14.73;;;;;;;;;;6150540;23;20635;-89
2022/05/16 17:24:24;;;;;;;14.93;13.63;;;;;;;;;;6086008;23;20394;-91
2022/05/16 17:27:18;;;;;;;18.33;16.80;;;;;;;;;;6110442;23;20449;-90
2022/05/16 17:35:13;;;;;;;14.10;13.00;;;;;;;;;;6247712;22;20480;-91
2022/05/16 17:37:56;;;;;;;15.03;13.57;;;;;;;;;;6343502;22;20383;-94
2022/05/16 17:40:56;;;;;;;14.83;13.70;;;;;;;;;;6352771;22;20394;-90
2022/05/16 17:43:40;;;;;;;13.63;12.83;;;;;;;;;;6200955;22;20529;-89
2022/05/16 17:59:01;;;;;;;13.87;12.83;;;;;;;;;;6096970;23;20401;-91
2022/05/16 18:02:22;;;;;;;14.67;13.67;;;;;;;;;;6102827;23;20451;-91
2022/05/16 18:05:33;;;;;;;;;;;;;;;;;;;;;
2022/05/16 18:14:18;;;;;;;15.00;14.00;;;;;;;;;;6122931;23;20544;-90
2022/05/16 18:17:15;;;;;;;14.57;13.50;;;;;;;;;;6127926;23;21075;-89
2022/05/16 18:20:22;;;;;;;15.63;14.53;;;;;;;;;;6121217;23;20892;-91
2022/05/16 18:23:36;;;;;;;18.17;16.27;;;;;;;;;;6120309;23;20595;-92
2022/05/16 18:26:55;;;;;;;16.60;14.93;;;;;;;;;;6126568;23;20441;-93
2022/05/16 18:41:19;;;;;;;19.53;17.97;;;;;;;;;;6240606;22;20476;-91
2022/05/16 18:58:21;;;;;;;21.33;19.57;;;;;;;;;;6239424;22;20464;-94
2022/05/16 19:01:25;;;;;;;19.17;17.77;;;;;;;;;;6091414;23;20406;-91
2022/05/16 19:04:31;;;;;;;20.90;19.20;;;;;;;;;;6105923;23;20424;-90
2022/05/16 19:07:41;;;;;;;21.50;19.80;;;;;;;;;;6112576;23;20466;-93
2022/05/16 19:10:47;;;;;;;20.80;19.00;;;;;;;;;;6100372;23;20440;-93
2022/05/16 19:13:54;;;;;;;20.53;18.40;;;;;;;;;;6071417;23;20766;-92
2022/05/16 19:17:02;;;;;;;23.10;21.30;;;;;;;;;;6091155;23;20378;-92
2022/05/16 19:20:08;;;;;;;21.47;19.83;;;;;;;;;;6090026;23;20451;-93
2022/05/16 19:23:12;;;;;;;22.43;20.57;;;;;;;;;;6089828;23;20423;-91
2022/05/16 19:26:18;;;;;;;25.60;23.60;;;;;;;;;;6088886;23;20469;-94
2022/05/16 19:32:38;;;;;;;33.53;30.27;;;;;;;;;;6096729;23;20448;-91
2022/05/16 19:35:37;;;;;;;36.07;32.07;;;;;;;;;;6092090;23;20386;-91
2022/05/16 19:38:46;;;;;;;37.73;33.70;;;;;;;;;;6086191;23;20441;-91
2022/05/16 19:41:57;;;;;;;42.83;38.40;;;;;;;;;;6093288;23;20481;-93
2022/05/16 19:45:09;;;;;;;36.00;32.27;;;;;;;;;;6092545;23;20383;-92
2022/05/16 19:48:29;;;;;;;32.67;29.57;;;;;;;;;;6073797;23;20387;-90
2022/05/16 20:46:38;;;;;;;111.17;42.80;;;;;;;;;;6235143;22;20989;-92
2022/05/16 20:50:07;;;;;;;;;;;;;;;;;;;;;
2022/05/16 20:53:15;;;;;;;131.93;36.50;;;;;;;;;;6269338;22;20495;-93
2022/05/16 21:02:59;;;;;;;182.37;36.83;;;;;;;;;;6265642;22;20368;-92
2022/05/16 21:06:29;;;;;;;143.50;37.17;;;;;;;;;;6277607;22;20435;-93
2022/05/16 21:09:54;;;;;;;;;;;;;;;;;;;;;
2022/05/16 21:13:11;;;;;;;;;;;;;;;;;;;;;
2022/05/16 21:16:18;;;;;;;;;;;;;;;;;;;;;
2022/05/16 21:19:31;;;;;;;88.10;35.40;;;;;;;;;;6238990;22;20385;-92
2022/05/16 21:28:48;;;;;;;90.33;38.57;;;;;;;;;;6271080;22;20468;-94
2022/05/16 21:32:10;;;;;;;;;;;;;;;;;;;;;
2022/05/16 21:35:08;;;;;;;60.23;40.30;;;;;;;;;;6155730;23;20408;-93
2022/05/16 21:38:16;;;;;;;105.60;41.50;;;;;;;;;;6169409;22;20384;-93
2022/05/16 21:41:15;;;;;;;80.27;39.30;;;;;;;;;;6156032;23;20502;-93
2022/05/16 21:47:26;;;;;;;47.67;35.17;;;;;;;;;;6156120;23;20802;-94
2022/05/16 21:50:32;;;;;;;39.87;34.90;;;;;;;;;;6159084;23;20384;-93
2022/05/16 21:53:43;;;;;;;39.53;35.37;;;;;;;;;;6191708;23;20474;-95
2022/05/16 21:56:51;;;;;;;39.43;35.30;;;;;;;;;;6155275;23;20388;-94
2022/05/16 21:59:58;;;;;;;60.03;32.13;;;;;;;;;;6169641;23;20524;-94
2022/05/16 22:03:07;;;;;;;74.93;35.70;;;;;;;;;;6173489;23;20526;-93
2022/05/16 22:06:10;;;;;;;67.10;32.20;;;;;;;;;;6168199;22;20451;-93
2022/05/16 22:09:16;;;;;;;94.33;39.10;;;;;;;;;;6173950;23;20388;-92
2022/05/16 22:14:57;;;;;;;57.97;34.80;;;;;;;;;;6096883;22;20450;-92
2022/05/16 22:18:05;;;;;;;63.87;33.93;;;;;;;;;;6360802;22;20870;-92
2022/05/16 22:21:10;;;;;;;71.70;35.07;;;;;;;;;;6360893;22;20371;-92
2022/05/16 22:24:19;;;;;;;101.73;31.43;;;;;;;;;;6364511;22;20400;-92
2022/05/16 22:27:22;;;;;;;51.23;31.93;;;;;;;;;;6363501;22;20458;-92
2022/05/16 22:30:28;;;;;;;68.73;30.10;;;;;;;;;;6361603;22;20359;-92
2022/05/16 22:33:34;;;;;;;51.93;28.70;;;;;;;;;;6360051;22;20407;-91
2022/05/16 22:36:52;;;;;;;42.13;29.67;;;;;;;;;;6353515;22;20386;-94
2022/05/16 22:39:55;;;;;;;60.37;28.50;;;;;;;;;;6356360;22;20411;-92
2022/05/16 22:43:01;;;;;;;38.63;28.37;;;;;;;;;;6356257;22;20919;-92
2022/05/16 22:46:16;;;;;;;31.50;27.90;;;;;;;;;;6353783;22;20445;-91
2022/05/16 22:49:28;;;;;;;32.23;28.63;;;;;;;;;;6259924;22;20889;-93
2022/05/16 22:53:07;;;;;;;;;;;;;;;;;;;;;
2022/05/16 22:56:05;;;;;;;32.00;28.80;;;;;;;;;;6238569;23;20496;-92
2022/05/16 22:59:29;;;;;;;41.67;28.17;;;;;;;;;;6216147;23;20381;-90
